createdAt,value
2019-03-12T00:01:06.207Z,101174.95
2019-03-12T00:03:39.759Z,101177.49
2019-03-12T00:06:13.281Z,101180.84
2019-03-12T00:08:46.702Z,101172.39
2019-03-12T00:11:20.039Z,101183.86
2019-03-12T00:13:53.539Z,101178.75
2019-03-12T00:16:26.928Z,101175.36
2019-03-12T00:19:00.624Z,101182.16
2019-03-12T00:21:33.943Z,101180.82
2019-03-12T00:24:07.342Z,101197.77
2019-03-12T00:26:40.663Z,101196.43
2019-03-12T00:29:14.116Z,101199.44
2019-03-12T00:31:47.444Z,101199.91
2019-03-12T00:34:20.899Z,101206.22
2019-03-12T00:36:54.293Z,101199.89
2019-03-12T00:39:27.704Z,101199.89
2019-03-12T00:42:01.032Z,101199.05
2019-03-12T00:44:34.424Z,101206.16
2019-03-12T00:47:07.772Z,101212.09
2019-03-12T00:49:41.227Z,101210.40
2019-03-12T00:52:14.617Z,101212.56
2019-03-12T00:54:47.962Z,101211.31
2019-03-12T00:57:21.379Z,101198.63
2019-03-12T00:59:56.405Z,101204.97
2019-03-12T01:02:30.062Z,101205.41
2019-03-12T01:05:03.958Z,101206.23
2019-03-12T01:07:37.432Z,101203.72
2019-03-12T01:10:14.987Z,101201.99
2019-03-12T01:12:48.441Z,101209.64
2019-03-12T01:15:21.867Z,101212.61
2019-03-12T01:17:55.279Z,101210.09
2019-03-12T01:20:28.649Z,101207.95
2019-03-12T01:23:01.968Z,101213.47
2019-03-12T01:25:35.487Z,101218.13
2019-03-12T01:28:08.812Z,101212.61
2019-03-12T01:30:42.198Z,101214.74
2019-03-12T01:33:15.678Z,101199.50
2019-03-12T01:35:49.209Z,101198.24
2019-03-12T01:38:22.550Z,101194.86
2019-03-12T01:40:55.929Z,101194.86
2019-03-12T01:43:29.341Z,101199.10
2019-03-12T01:46:02.874Z,101202.52
2019-03-12T01:48:36.238Z,101205.45
2019-03-12T01:51:09.622Z,101202.48
2019-03-12T01:53:43.009Z,101202.48
2019-03-12T01:56:16.445Z,101197.83
2019-03-12T01:58:49.855Z,101197.83
2019-03-12T02:01:23.320Z,101205.47
2019-03-12T02:03:56.676Z,101200.81
2019-03-12T02:06:29.996Z,101208.43
2019-03-12T02:09:03.937Z,101208.43
2019-03-12T02:11:37.374Z,101210.16
2019-03-12T02:14:22.353Z,101205.92
2019-03-12T02:16:55.804Z,101208.05
2019-03-12T02:19:29.302Z,101202.55
2019-03-12T02:22:02.679Z,101202.55
2019-03-12T02:24:36.116Z,101198.30
2019-03-12T02:27:09.701Z,101205.92
2019-03-12T02:29:43.247Z,101195.36
2019-03-12T02:32:16.576Z,101180.11
2019-03-12T02:34:49.914Z,101186.05
2019-03-12T02:37:23.340Z,101202.12
2019-03-12T02:39:56.671Z,101195.34
2019-03-12T02:42:30.002Z,101191.12
2019-03-12T02:45:03.835Z,101169.94
2019-03-12T02:47:37.295Z,101169.94
2019-03-12T02:50:12.903Z,101173.75
2019-03-12T02:52:46.251Z,101166.14
2019-03-12T02:55:19.895Z,101164.02
2019-03-12T02:57:53.393Z,101164.02
2019-03-12T03:00:26.998Z,101161.48
2019-03-12T03:03:00.460Z,101159.34
2019-03-12T03:05:35.532Z,101155.11
2019-03-12T03:08:10.723Z,101153.02
2019-03-12T03:10:44.175Z,101153.02
2019-03-12T03:13:17.763Z,101159.78
2019-03-12T03:15:51.217Z,101157.66
2019-03-12T03:18:24.841Z,101156.80
2019-03-12T03:20:58.348Z,101165.70
2019-03-12T03:23:31.786Z,101159.78
2019-03-12T03:26:05.335Z,101174.61
2019-03-12T03:28:38.889Z,101174.61
2019-03-12T03:31:12.389Z,101177.58
2019-03-12T03:33:45.819Z,101171.23
2019-03-12T03:36:19.333Z,101183.52
2019-03-12T03:38:52.893Z,101179.70
2019-03-12T03:41:26.374Z,101174.19
2019-03-12T03:44:00.016Z,101174.19
2019-03-12T03:46:33.490Z,101173.38
2019-03-12T03:49:06.932Z,101168.70
2019-03-12T03:51:40.322Z,101169.95
2019-03-12T03:54:13.689Z,101167.41
2019-03-12T03:56:47.148Z,101166.15
2019-03-12T03:59:20.806Z,101169.11
2019-03-12T04:01:54.291Z,101151.31
2019-03-12T04:04:27.756Z,101154.29
2019-03-12T04:07:01.306Z,101159.37
2019-03-12T04:09:34.704Z,101152.16
2019-03-12T04:12:08.189Z,101152.16
2019-03-12T04:14:41.692Z,101160.62
2019-03-12T04:17:15.164Z,101151.75
2019-03-12T04:19:48.688Z,101151.75
2019-03-12T04:22:22.205Z,101158.52
2019-03-12T04:24:55.725Z,101158.94
2019-03-12T04:27:29.282Z,101158.53
2019-03-12T04:30:03.395Z,101156.41
2019-03-12T04:32:37.000Z,101159.80
2019-03-12T04:35:13.303Z,101160.66
2019-03-12T04:37:46.667Z,101157.27
2019-03-12T04:40:20.142Z,101145.39
2019-03-12T04:42:53.650Z,101149.63
2019-03-12T04:45:27.130Z,101150.05
2019-03-12T04:48:00.645Z,101145.39
2019-03-12T04:50:34.024Z,101141.14
2019-03-12T04:53:07.584Z,101139.88
2019-03-12T04:55:41.179Z,101134.79
2019-03-12T04:58:14.683Z,101134.79
2019-03-12T05:00:48.144Z,101140.30
2019-03-12T05:03:21.567Z,101131.39
2019-03-12T05:05:55.128Z,101126.73
2019-03-12T05:08:28.633Z,101132.24
2019-03-12T05:11:02.007Z,101132.24
2019-03-12T05:13:35.510Z,101132.68
2019-03-12T05:16:08.972Z,101132.68
2019-03-12T05:18:42.318Z,101130.97
2019-03-12T05:21:15.830Z,101119.95
2019-03-12T05:23:49.179Z,101117.40
2019-03-12T05:26:22.563Z,101117.40
2019-03-12T05:28:55.960Z,101124.20
2019-03-12T05:31:29.411Z,101115.72
2019-03-12T05:34:02.916Z,101106.81
2019-03-12T05:36:36.429Z,101106.81
2019-03-12T05:39:09.849Z,101113.19
2019-03-12T05:41:43.242Z,101107.66
2019-03-12T05:44:16.717Z,101107.66
2019-03-12T05:46:50.180Z,101124.61
2019-03-12T05:49:23.581Z,101124.61
2019-03-12T05:51:57.029Z,101120.39
2019-03-12T05:54:30.413Z,101112.73
2019-03-12T05:57:03.928Z,101112.73
2019-03-12T05:59:37.299Z,101113.59
2019-03-12T06:02:10.720Z,101119.95
2019-03-12T06:04:44.063Z,101118.27
2019-03-12T06:07:17.509Z,101108.52
2019-03-12T06:09:50.970Z,101103.86
2019-03-12T06:12:24.464Z,101103.86
2019-03-12T06:14:58.000Z,101094.95
2019-03-12T06:17:31.521Z,101089.02
2019-03-12T06:20:08.047Z,101089.02
2019-03-12T06:22:41.676Z,101092.83
2019-03-12T06:25:15.182Z,101075.04
2019-03-12T06:27:48.702Z,101075.04
2019-03-12T06:30:22.118Z,101086.89
2019-03-12T06:32:57.180Z,101082.65
2019-03-12T06:38:09.165Z,101082.62
2019-03-12T06:40:49.918Z,101086.00
2019-03-12T06:43:25.022Z,101087.25
2019-03-12T06:46:03.079Z,101083.43
2019-03-12T06:48:40.584Z,101085.11
2019-03-12T06:51:31.687Z,101084.71
2019-03-12T06:54:18.748Z,101083.00
2019-03-12T06:56:56.836Z,101084.30
2019-03-12T06:59:34.428Z,101090.22
2019-03-12T07:02:24.742Z,101084.72
2019-03-12T07:05:05.649Z,101083.88
2019-03-12T07:07:56.688Z,101075.38
2019-03-12T07:10:31.796Z,101071.55
2019-03-12T07:13:12.432Z,101062.67
2019-03-12T07:15:47.531Z,101057.14
2019-03-12T07:18:22.599Z,101052.45
2019-03-12T07:21:14.031Z,101056.67
2019-03-12T07:23:52.039Z,101060.52
2019-03-12T07:26:36.064Z,101059.69
2019-03-12T07:29:19.895Z,101053.77
2019-03-12T07:32:11.325Z,101052.97
2019-03-12T07:34:49.255Z,101042.75
2019-03-12T07:37:24.417Z,101036.80
2019-03-12T07:40:05.011Z,101035.91
2019-03-12T07:42:40.105Z,101031.25
2019-03-12T07:45:17.865Z,101032.55
2019-03-12T07:47:52.961Z,101035.12
2019-03-12T07:50:28.063Z,101035.91
2019-03-12T07:53:21.245Z,101029.94
2019-03-12T07:55:56.276Z,101034.48
2019-03-12T07:58:35.933Z,101031.84
2019-03-12T08:01:08.628Z,101012.66
2019-03-12T08:03:49.594Z,101018.69
2019-03-12T08:06:30.664Z,101007.22
2019-03-12T08:09:07.394Z,101004.13
2019-03-12T08:11:51.047Z,100988.63
2019-03-12T08:14:27.037Z,100990.95
2019-03-12T08:17:08.657Z,100980.53
2019-03-12T08:19:43.713Z,100970.91
2019-03-12T08:22:24.496Z,100963.23
2019-03-12T08:25:15.794Z,100962.79
2019-03-12T08:27:50.896Z,100957.34
2019-03-12T08:30:28.889Z,100952.70
2019-03-12T08:33:06.672Z,100953.14
2019-03-12T08:35:41.796Z,100940.18
2019-03-12T08:38:16.831Z,100938.84
2019-03-12T08:40:57.685Z,100941.77
2019-03-12T08:43:47.884Z,100931.06
2019-03-12T08:46:25.555Z,100924.03
2019-03-12T08:49:03.209Z,100915.86
2019-03-12T08:51:38.311Z,100914.84
2019-03-12T08:54:13.385Z,100912.77
2019-03-12T08:57:06.629Z,100912.49
2019-03-12T08:59:41.650Z,100910.48
2019-03-12T09:02:25.722Z,100899.26
2019-03-12T09:05:00.739Z,100894.11
2019-03-12T09:07:35.828Z,100890.97
2019-03-12T09:10:11.652Z,100873.42
2019-03-12T09:12:52.787Z,100872.48
2019-03-12T09:15:30.561Z,100865.23
2019-03-12T09:18:11.426Z,100858.02
2019-03-12T09:21:02.741Z,100845.22
2019-03-12T09:23:40.878Z,100839.54
2019-03-12T09:26:25.022Z,100834.41
2019-03-12T09:29:08.839Z,100828.50
2019-03-12T09:31:49.751Z,100813.87
2019-03-12T09:34:36.711Z,100804.28
2019-03-12T09:37:29.998Z,100807.33
2019-03-12T09:40:06.456Z,100804.77
2019-03-12T09:42:41.632Z,100798.15
2019-03-12T09:45:34.894Z,100783.87
2019-03-12T09:48:19.237Z,100772.07
2019-03-12T09:51:01.876Z,100771.09
2019-03-12T09:53:37.134Z,100768.59
2019-03-12T09:56:30.487Z,100762.92
2019-03-12T09:59:05.536Z,100760.58
2019-03-12T10:01:43.314Z,100763.74
2019-03-12T10:04:18.510Z,100762.77
2019-03-12T10:06:59.744Z,100766.25
2019-03-12T10:09:38.060Z,100754.12
2019-03-12T10:12:13.208Z,100748.20
2019-03-12T10:15:00.168Z,100753.30
2019-03-12T10:17:53.586Z,100729.79
2019-03-12T10:23:31.901Z,100729.27
2019-03-12T10:26:12.789Z,100708.17
2019-03-12T10:28:48.178Z,100704.98
2019-03-12T10:31:29.199Z,100698.69
2019-03-12T10:34:13.347Z,100696.50
2019-03-12T10:36:48.535Z,100695.91
2019-03-12T10:40:08.888Z,100687.80
2019-03-12T10:42:46.764Z,100694.58
2019-03-12T10:45:21.934Z,100686.08
2019-03-12T10:48:05.096Z,100683.59
2019-03-12T10:50:38.551Z,100669.21
2019-03-12T10:53:12.080Z,100670.78
2019-03-12T10:55:45.573Z,100669.33
2019-03-12T10:58:19.026Z,100661.19
2019-03-12T11:00:52.494Z,100647.21
2019-03-12T11:03:26.042Z,100651.18
2019-03-12T11:05:59.512Z,100640.08
2019-03-12T11:08:33.207Z,100637.08
2019-03-12T11:11:06.667Z,100635.40
2019-03-12T11:13:40.425Z,100627.48
2019-03-12T11:16:13.929Z,100626.27
2019-03-12T11:18:47.312Z,100606.03
2019-03-12T11:21:20.744Z,100609.49
2019-03-12T11:23:54.186Z,100594.19
2019-03-12T11:26:27.684Z,100589.66
2019-03-12T11:29:01.141Z,100590.05
2019-03-12T11:31:34.607Z,100580.95
2019-03-12T11:34:08.099Z,100586.14
2019-03-12T11:36:41.476Z,100573.53
2019-03-12T11:39:14.979Z,100576.73
2019-03-12T11:41:48.624Z,100575.33
2019-03-12T11:44:22.003Z,100565.36
2019-03-12T11:46:55.609Z,100561.89
2019-03-12T11:49:29.238Z,100562.61
2019-03-12T11:52:02.791Z,100547.55
2019-03-12T11:54:36.309Z,100550.13
2019-03-12T11:57:10.061Z,100545.23
2019-03-12T11:59:43.717Z,100542.41
2019-03-12T12:02:17.158Z,100545.09
2019-03-12T12:04:50.806Z,100533.84
2019-03-12T12:07:24.253Z,100533.48
2019-03-12T12:09:57.848Z,100525.56
2019-03-12T12:12:31.521Z,100521.28
2019-03-12T12:15:08.355Z,100516.93
2019-03-12T12:17:41.795Z,100521.89
2019-03-12T12:20:28.393Z,100501.86
2019-03-12T12:22:51.080Z,100487.88
2019-03-12T12:25:24.683Z,100463.25
2019-03-12T12:27:58.348Z,100448.77
2019-03-12T12:30:31.979Z,100441.84
2019-03-12T12:33:05.531Z,100427.70
2019-03-12T12:35:38.947Z,100424.15
2019-03-12T12:38:12.516Z,100422.11
2019-03-12T12:40:46.082Z,100413.95
2019-03-12T12:43:19.602Z,100409.59
2019-03-12T12:45:53.124Z,100388.12
2019-03-12T12:48:26.822Z,100366.30
2019-03-12T12:51:03.506Z,100350.28
2019-03-12T12:53:35.764Z,100340.82
2019-03-12T12:56:09.153Z,100329.83
2019-03-12T12:58:42.620Z,100316.89
2019-03-12T13:01:16.171Z,100311.47
2019-03-12T13:03:49.679Z,100309.53
2019-03-12T13:06:23.125Z,100308.30
2019-03-12T13:08:56.677Z,100304.84
2019-03-12T13:11:30.197Z,100303.71
2019-03-12T13:14:03.672Z,100288.52
2019-03-12T13:16:37.115Z,100283.50
2019-03-12T13:19:10.534Z,100268.55
2019-03-12T13:21:44.151Z,100264.27
2019-03-12T13:24:17.563Z,100263.33
2019-03-12T13:26:51.023Z,100263.72
2019-03-12T13:29:24.528Z,100258.84
2019-03-12T13:31:58.067Z,100246.78
2019-03-12T13:34:31.522Z,100240.78
2019-03-12T13:37:05.013Z,100237.33
2019-03-12T13:39:38.533Z,100217.50
2019-03-12T13:42:12.357Z,100211.39
2019-03-12T13:44:45.961Z,100207.91
2019-03-12T13:47:19.405Z,100205.30
2019-03-12T13:49:52.917Z,100204.73
2019-03-12T13:52:26.366Z,100183.88
2019-03-12T13:54:59.982Z,100180.53
2019-03-12T13:57:33.475Z,100179.79
2019-03-12T14:00:13.135Z,100164.62
2019-03-12T14:02:46.633Z,100159.19
2019-03-12T14:05:20.174Z,100150.70
2019-03-12T14:07:53.660Z,100139.55
2019-03-12T14:10:27.972Z,100133.55
2019-03-12T14:13:01.712Z,100129.72
2019-03-12T14:15:39.348Z,100120.00
2019-03-12T14:18:12.906Z,100115.13
2019-03-12T14:20:51.283Z,100120.36
2019-03-12T14:23:30.404Z,100111.41
2019-03-12T14:26:04.028Z,100103.67
2019-03-12T14:28:37.531Z,100095.62
2019-03-12T14:31:10.990Z,100079.16
2019-03-12T14:33:44.479Z,100069.73
2019-03-12T14:36:18.045Z,100072.25
2019-03-12T14:38:51.471Z,100062.20
2019-03-12T14:41:24.992Z,100053.23
2019-03-12T14:43:58.503Z,100052.62
2019-03-12T14:46:31.987Z,100038.95
2019-03-12T14:49:05.487Z,100032.97
2019-03-12T14:51:59.766Z,100019.29
2019-03-12T14:54:33.347Z,100010.31
2019-03-12T14:57:06.971Z,100007.72
2019-03-12T14:59:40.466Z,100003.56
2019-03-12T15:02:13.996Z,99987.69
2019-03-12T15:04:47.570Z,99988.16
2019-03-12T15:07:21.001Z,99975.50
2019-03-12T15:09:54.439Z,99955.29
2019-03-12T15:12:27.931Z,99953.05
2019-03-12T15:15:01.461Z,99939.75
2019-03-12T15:17:35.030Z,99935.76
2019-03-12T15:20:10.920Z,99929.88
2019-03-12T15:22:44.520Z,99903.48
2019-03-12T15:25:17.941Z,99912.63
2019-03-12T15:27:51.383Z,99899.02
2019-03-12T15:30:27.726Z,99889.74
2019-03-12T15:33:01.345Z,99862.23
2019-03-12T15:35:34.854Z,99854.92
2019-03-12T15:38:08.711Z,99850.59
2019-03-12T15:40:42.148Z,99847.19
2019-03-12T15:43:15.717Z,99838.71
2019-03-12T15:45:49.145Z,99836.23
2019-03-12T15:48:22.672Z,99833.30
2019-03-12T15:50:56.123Z,99821.23
2019-03-12T15:53:29.550Z,99804.21
2019-03-12T15:56:03.017Z,99810.08
2019-03-12T15:58:36.432Z,99794.81
2019-03-12T16:01:10.043Z,99786.11
2019-03-12T16:03:43.723Z,99785.63
2019-03-12T16:06:17.314Z,99779.41
2019-03-12T16:08:50.710Z,99765.25
2019-03-12T16:11:24.265Z,99750.58
2019-03-12T16:13:57.768Z,99743.09
2019-03-12T16:16:31.272Z,99748.75
2019-03-12T16:19:04.763Z,99741.31
2019-03-12T16:21:40.530Z,99732.89
2019-03-12T16:24:13.672Z,99720.71
2019-03-12T16:26:47.109Z,99719.47
2019-03-12T16:29:20.464Z,99711.47
2019-03-12T16:31:53.911Z,99697.55
2019-03-12T16:34:27.395Z,99696.86
2019-03-12T16:37:01.055Z,99687.59
2019-03-12T16:39:34.643Z,99686.48
2019-03-12T16:42:08.219Z,99674.21
2019-03-12T16:44:41.617Z,99672.05
2019-03-12T16:47:15.094Z,99656.13
2019-03-12T16:49:48.938Z,99659.82
2019-03-12T16:52:22.640Z,99644.33
2019-03-12T16:54:56.064Z,99642.94
2019-03-12T16:57:29.521Z,99636.66
2019-03-12T17:00:08.232Z,99619.58
2019-03-12T17:02:38.763Z,99622.02
2019-03-12T17:05:13.682Z,99619.36
2019-03-12T17:07:47.314Z,99613.91
2019-03-12T17:10:21.524Z,99601.69
2019-03-12T17:12:54.994Z,99597.93
2019-03-12T17:15:30.182Z,99580.09
2019-03-12T17:18:03.631Z,99584.66
2019-03-12T17:20:37.256Z,99572.28
2019-03-12T17:23:10.677Z,99561.45
2019-03-12T17:25:44.174Z,99568.89
2019-03-12T17:28:17.978Z,99559.73
2019-03-12T17:30:51.460Z,99551.84
2019-03-12T17:33:24.983Z,99544.16
2019-03-12T17:35:58.455Z,99534.65
2019-03-12T17:38:45.484Z,99530.05
2019-03-12T17:41:07.129Z,99533.42
2019-03-12T17:43:40.577Z,99521.61
2019-03-12T17:46:14.033Z,99521.55
2019-03-12T17:48:47.715Z,99509.41
2019-03-12T17:51:21.228Z,99505.35
2019-03-12T17:53:54.739Z,99504.02
2019-03-12T17:56:28.264Z,99493.06
2019-03-12T17:59:01.827Z,99486.68
2019-03-12T18:01:35.391Z,99479.88
2019-03-12T18:04:08.991Z,99467.17
2019-03-12T18:06:42.506Z,99460.57
2019-03-12T18:09:16.235Z,99448.15
2019-03-12T18:11:49.658Z,99443.91
2019-03-12T18:14:23.189Z,99434.97
2019-03-12T18:16:56.662Z,99431.52
2019-03-12T18:19:30.162Z,99430.46
2019-03-12T18:22:03.518Z,99425.35
2019-03-12T18:24:36.908Z,99410.75
2019-03-12T18:27:10.521Z,99402.02
2019-03-12T18:29:43.893Z,99404.94
2019-03-12T18:32:17.485Z,99395.86
2019-03-12T18:34:50.921Z,99383.92
2019-03-12T18:37:24.597Z,99369.86
2019-03-12T18:39:58.049Z,99355.88
2019-03-12T18:42:31.453Z,99348.26
2019-03-12T18:45:16.633Z,99352.09
2019-03-12T18:47:50.132Z,99346.22
2019-03-12T18:50:23.578Z,99330.78
2019-03-12T18:52:57.105Z,99333.88
2019-03-12T18:55:33.681Z,99332.60
2019-03-12T18:58:07.863Z,99320.78
2019-03-12T19:00:44.726Z,99304.69
2019-03-12T19:03:18.236Z,99300.84
2019-03-12T19:05:51.747Z,99299.40
2019-03-12T19:08:25.166Z,99279.67
2019-03-12T19:10:58.618Z,99283.11
2019-03-12T19:13:32.320Z,99276.28
2019-03-12T19:16:05.801Z,99269.89
2019-03-12T19:18:39.400Z,99261.59
2019-03-12T19:21:12.904Z,99249.66
2019-03-12T19:23:46.381Z,99249.66
2019-03-12T19:26:19.819Z,99237.09
2019-03-12T19:28:53.292Z,99232.74
2019-03-12T19:31:31.416Z,99224.21
2019-03-12T19:34:05.304Z,99215.77
2019-03-12T19:36:38.856Z,99210.45
2019-03-12T19:39:14.044Z,99200.83
2019-03-12T19:41:47.459Z,99205.23
2019-03-12T19:44:21.086Z,99190.20
2019-03-12T19:46:54.505Z,99181.54
2019-03-12T19:49:28.011Z,99175.69
2019-03-12T19:52:01.499Z,99161.59
2019-03-12T19:54:35.010Z,99158.09
2019-03-12T19:57:08.435Z,99158.70
2019-03-12T19:59:41.953Z,99151.81
2019-03-12T20:02:16.832Z,99149.60
2019-03-12T20:04:50.307Z,99139.41
2019-03-12T20:07:23.726Z,99141.11
2019-03-12T20:10:00.373Z,99118.03
2019-03-12T20:12:56.030Z,99120.36
2019-03-12T20:16:04.327Z,99108.52
2019-03-12T20:18:43.725Z,99094.02
2019-03-12T20:21:34.669Z,99091.02
2019-03-12T20:24:35.018Z,99091.91
2019-03-12T20:27:39.715Z,99095.30
2019-03-12T20:30:37.264Z,99069.95
2019-03-12T20:33:16.796Z,99063.84
2019-03-12T20:36:26.036Z,99061.21
2019-03-12T20:39:17.281Z,99057.72
2019-03-12T20:42:16.280Z,99052.31
2019-03-12T20:44:55.319Z,99043.08
2019-03-12T20:47:57.301Z,99041.33
2019-03-12T20:51:02.298Z,99038.05
2019-03-12T20:53:59.446Z,99027.09
2019-03-12T20:56:51.944Z,99016.88
2019-03-12T20:59:46.192Z,99017.56
2019-03-12T21:02:42.224Z,99022.72
2019-03-12T21:05:41.122Z,99017.02
2019-03-12T21:08:17.666Z,99013.83
2019-03-12T21:11:19.550Z,99006.62
2019-03-12T21:14:27.277Z,99011.86
2019-03-12T21:17:09.277Z,98995.95
2019-03-12T21:20:17.407Z,98977.70
2019-03-12T21:23:11.182Z,98976.10
2019-03-12T21:25:50.498Z,98967.02
2019-03-12T21:28:43.526Z,98964.78
2019-03-12T21:31:17.050Z,98956.09
2019-03-12T21:33:50.390Z,98963.84
2019-03-12T21:36:23.901Z,98943.83
2019-03-12T21:38:57.418Z,98947.27
2019-03-12T21:41:30.858Z,98933.39
2019-03-12T21:44:04.339Z,98928.00
2019-03-12T21:46:37.833Z,98924.09
2019-03-12T21:49:11.359Z,98915.61
2019-03-12T21:51:44.826Z,98908.99
2019-03-12T21:54:18.177Z,98910.30
2019-03-12T21:56:51.722Z,98905.98
2019-03-12T21:59:25.140Z,98908.04
2019-03-12T22:01:58.651Z,98894.20
2019-03-12T22:04:32.170Z,98884.28
2019-03-12T22:07:05.680Z,98885.20
2019-03-12T22:09:39.358Z,98875.88
2019-03-12T22:12:12.915Z,98864.85
2019-03-12T22:14:46.336Z,98866.48
2019-03-12T22:17:19.868Z,98857.17
2019-03-12T22:19:53.243Z,98849.73
2019-03-12T22:22:31.377Z,98848.45
2019-03-12T22:25:07.680Z,98843.47
2019-03-12T22:27:41.124Z,98841.48
2019-03-12T22:30:23.515Z,98835.73
2019-03-12T22:32:57.042Z,98844.69
2019-03-12T22:35:30.530Z,98847.15
2019-03-12T22:38:04.037Z,98840.39
2019-03-12T22:40:37.473Z,98849.00
2019-03-12T22:43:10.906Z,98826.06
2019-03-12T22:45:44.324Z,98821.59
2019-03-12T22:48:17.802Z,98818.67
2019-03-12T22:50:51.304Z,98812.59
2019-03-12T22:53:24.749Z,98811.22
2019-03-12T22:55:58.268Z,98811.89
2019-03-12T22:58:31.694Z,98812.77
2019-03-12T23:01:05.333Z,98805.44
2019-03-12T23:03:38.876Z,98804.16
2019-03-12T23:06:12.424Z,98807.20
2019-03-12T23:08:45.865Z,98827.62
2019-03-12T23:11:19.213Z,98817.12
2019-03-12T23:13:52.706Z,98806.68
2019-03-12T23:16:26.199Z,98808.15
2019-03-12T23:18:59.720Z,98816.33
2019-03-12T23:21:33.220Z,98804.16
2019-03-12T23:24:06.908Z,98803.68
2019-03-12T23:26:40.330Z,98797.08
2019-03-12T23:29:13.793Z,98803.98
2019-03-12T23:31:47.313Z,98787.10
2019-03-12T23:34:20.797Z,98793.83
2019-03-12T23:36:54.241Z,98775.73
2019-03-12T23:39:27.679Z,98780.11
2019-03-12T23:42:01.216Z,98779.56
2019-03-12T23:44:34.697Z,98767.77
2019-03-12T23:47:08.134Z,98762.68
2019-03-12T23:49:41.585Z,98763.02
2019-03-12T23:52:15.036Z,98767.19
2019-03-12T23:54:48.451Z,98753.56
2019-03-12T23:57:21.934Z,98780.11
2019-03-12T23:59:55.419Z,98787.92
